createdAt,value
2023-04-02T00:00:15.018Z,101328.94
2023-04-02T00:03:01.509Z,101334.03
2023-04-02T00:05:30.997Z,101344.25
2023-04-02T00:08:03.096Z,101343.41
2023-04-02T00:10:38.578Z,101348.50
2023-04-02T00:13:11.176Z,101336.63
2023-04-02T00:15:39.233Z,101353.63
2023-04-02T00:18:06.676Z,101365.50
2023-04-02T00:20:38.620Z,101358.72
2023-04-02T00:23:06.684Z,101357.06
2023-04-02T00:25:37.399Z,101363.84
2023-04-02T00:28:04.674Z,101371.47
2023-04-02T00:30:31.068Z,101371.50
2023-04-02T00:32:58.029Z,101378.34
2023-04-02T00:35:29.411Z,101377.50
2023-04-02T00:37:57.186Z,101375.81
2023-04-02T00:40:31.597Z,101393.66
2023-04-02T00:43:00.537Z,101394.50
2023-04-02T00:45:30.863Z,101401.28
2023-04-02T00:48:00.580Z,101400.44
2023-04-02T00:50:36.128Z,101414.91
2023-04-02T00:53:24.068Z,101409.84
2023-04-02T00:55:50.499Z,101420.06
2023-04-02T00:58:37.377Z,101423.47
2023-04-02T01:01:16.712Z,101426.88
2023-04-02T01:03:44.318Z,101434.53
2023-04-02T01:06:17.049Z,101437.09
2023-04-02T01:09:15.885Z,101446.47
2023-04-02T01:12:21.248Z,101450.69
2023-04-02T01:15:17.324Z,101443.94
2023-04-02T01:17:54.551Z,101456.69
2023-04-02T01:20:53.744Z,101460.06
2023-04-02T01:23:24.784Z,101467.75
2023-04-02T01:26:06.318Z,101468.56
2023-04-02T01:28:54.814Z,101472.84
2023-04-02T01:31:22.590Z,101480.50
2023-04-02T01:33:49.217Z,101478.81
2023-04-02T01:36:38.442Z,101483.06
2023-04-02T01:39:14.341Z,101487.31
2023-04-02T01:42:16.012Z,101490.72
2023-04-02T01:44:53.170Z,101486.47
2023-04-02T01:47:25.595Z,101505.16
2023-04-02T01:50:12.887Z,101503.47
2023-04-02T01:52:42.203Z,101509.44
2023-04-02T01:55:12.995Z,101510.28
2023-04-02T01:57:43.353Z,101520.50
2023-04-02T02:00:14.789Z,101523.88
2023-04-02T02:02:43.172Z,101528.13
2023-04-02T02:05:14.635Z,101535.78
2023-04-02T02:07:42.050Z,101547.69
2023-04-02T02:10:15.627Z,101551.06
2023-04-02T02:12:44.528Z,101554.47
2023-04-02T02:15:19.962Z,101561.31
2023-04-02T02:17:46.560Z,101559.59
2023-04-02T02:20:14.196Z,101557.91
2023-04-02T02:22:45.716Z,101574.06
2023-04-02T02:25:17.025Z,101570.69
2023-04-02T02:27:54.864Z,101572.38
2023-04-02T02:30:35.217Z,101579.19
2023-04-02T02:33:26.206Z,101586.84
2023-04-02T02:35:58.687Z,101589.38
2023-04-02T02:38:34.195Z,101600.41
2023-04-02T02:41:15.421Z,101599.59
2023-04-02T02:43:48.456Z,101598.75
2023-04-02T02:46:20.371Z,101608.91
2023-04-02T02:48:48.010Z,101613.16
2023-04-02T02:51:42.245Z,101611.47
2023-04-02T02:54:09.186Z,101620.81
2023-04-02T02:56:41.682Z,101626.75
2023-04-02T02:59:11.320Z,101642.88
2023-04-02T03:01:38.295Z,101636.09
2023-04-02T03:04:05.095Z,101642.03
2023-04-02T03:06:31.751Z,101650.53
2023-04-02T03:09:06.774Z,101652.22
2023-04-02T03:11:41.299Z,101656.47
2023-04-02T03:14:20.418Z,101659.00
2023-04-02T03:16:52.472Z,101664.09
2023-04-02T03:19:58.365Z,101675.13
2023-04-02T03:22:24.763Z,101688.69
2023-04-02T03:25:01.837Z,101682.75
2023-04-02T03:27:36.629Z,101693.78
2023-04-02T03:30:30.560Z,101703.97
2023-04-02T03:33:29.601Z,101709.03
2023-04-02T03:36:13.041Z,101714.97
2023-04-02T03:39:09.585Z,101716.69
2023-04-02T03:41:52.825Z,101723.44
2023-04-02T03:44:34.807Z,101725.16
2023-04-02T03:47:10.408Z,101738.69
2023-04-02T03:49:44.026Z,101747.16
2023-04-02T03:52:13.437Z,101749.72
2023-04-02T03:54:41.102Z,101751.41
2023-04-02T03:57:38.482Z,101752.25
2023-04-02T04:00:32.690Z,101762.44
2023-04-02T04:03:08.207Z,101766.69
2023-04-02T04:05:37.853Z,101770.09
2023-04-02T04:08:08.154Z,101773.50
2023-04-02T04:10:35.499Z,101781.13
2023-04-02T04:13:14.032Z,101788.75
2023-04-02T04:16:06.546Z,101787.03
2023-04-02T04:18:42.528Z,101802.31
2023-04-02T04:21:37.339Z,101802.28
2023-04-02T04:24:33.012Z,101811.56
2023-04-02T04:27:12.754Z,101817.47
2023-04-02T04:29:54.148Z,101822.56
2023-04-02T04:32:32.083Z,101827.66
2023-04-02T04:35:07.850Z,101842.91
2023-04-02T04:37:40.976Z,101843.69
2023-04-02T04:40:23.802Z,101844.53
2023-04-02T04:42:54.190Z,101841.97
2023-04-02T04:45:56.124Z,101854.63
2023-04-02T04:48:36.591Z,101856.31
2023-04-02T04:51:10.448Z,101868.16
2023-04-02T04:53:47.622Z,101877.44
2023-04-02T04:56:19.826Z,101888.44
2023-04-02T04:58:58.550Z,101883.38
2023-04-02T05:01:28.392Z,101896.91
2023-04-02T05:04:35.577Z,101898.59
2023-04-02T05:07:27.381Z,101900.25
2023-04-02T05:10:04.116Z,101913.84
2023-04-02T05:12:42.250Z,101920.53
2023-04-02T05:15:29.430Z,101928.03
2023-04-02T05:18:00.915Z,101937.22
2023-04-02T05:20:41.186Z,101948.13
2023-04-02T05:23:15.631Z,101951.44
2023-04-02T05:26:14.562Z,101953.88
2023-04-02T05:28:48.179Z,101958.88
2023-04-02T05:31:25.894Z,101964.75
2023-04-02T05:33:52.888Z,101978.22
2023-04-02T05:36:23.558Z,101979.00
2023-04-02T05:38:52.001Z,101984.84
2023-04-02T05:41:32.324Z,101985.66
2023-04-02T05:44:18.331Z,101994.97
2023-04-02T05:46:54.301Z,101996.53
2023-04-02T05:49:29.060Z,102003.31
2023-04-02T05:52:00.847Z,102010.97
2023-04-02T05:54:38.115Z,102009.22
2023-04-02T05:57:11.496Z,102027.03
2023-04-02T05:59:43.904Z,102032.06
2023-04-02T06:02:20.482Z,102043.03
2023-04-02T06:05:07.367Z,102038.81
2023-04-02T06:07:46.574Z,102051.38
2023-04-02T06:10:20.692Z,102051.28
2023-04-02T06:12:50.006Z,102062.22
2023-04-02T06:15:22.651Z,102074.91
2023-04-02T06:17:58.756Z,102080.94
2023-04-02T06:20:26.314Z,102095.38
2023-04-02T06:23:03.777Z,102106.38
2023-04-02T06:25:35.846Z,102107.22
2023-04-02T06:28:06.635Z,102108.97
2023-04-02T06:30:39.369Z,102116.78
2023-04-02T06:33:06.179Z,102092.22
2023-04-02T06:35:37.198Z,102123.47
2023-04-02T06:38:06.865Z,102123.53
2023-04-02T06:40:59.032Z,102126.06
2023-04-02T06:43:38.002Z,102134.69
2023-04-02T06:46:14.051Z,102135.75
2023-04-02T06:48:42.403Z,102133.00
2023-04-02T06:51:12.873Z,102142.34
2023-04-02T06:53:43.218Z,102150.91
2023-04-02T06:56:44.650Z,102150.84
2023-04-02T06:59:12.720Z,102156.84
2023-04-02T07:02:06.639Z,102167.03
2023-04-02T07:04:33.428Z,102178.13
2023-04-02T07:06:59.956Z,102180.53
2023-04-02T07:09:26.710Z,102189.06
2023-04-02T07:11:53.094Z,102192.56
2023-04-02T07:14:19.536Z,102211.22
2023-04-02T07:16:46.504Z,102202.81
2023-04-02T07:19:21.794Z,102202.88
2023-04-02T07:21:48.428Z,102220.75
2023-04-02T07:24:14.818Z,102219.97
2023-04-02T07:26:41.882Z,102224.16
2023-04-02T07:29:13.472Z,102234.25
2023-04-02T07:31:40.846Z,102246.13
2023-04-02T07:34:08.542Z,102242.66
2023-04-02T07:36:34.958Z,102246.97
2023-04-02T07:39:04.924Z,102249.50
2023-04-02T07:41:31.421Z,102249.56
2023-04-02T07:43:57.903Z,102258.91
2023-04-02T07:46:25.757Z,102264.75
2023-04-02T07:48:52.179Z,102272.28
2023-04-02T07:51:21.418Z,102262.19
2023-04-02T07:53:54.786Z,102274.16
2023-04-02T07:56:22.854Z,102276.56
2023-04-02T07:58:49.479Z,102274.63
2023-04-02T08:01:27.202Z,102270.47
2023-04-02T08:03:55.626Z,102279.00
2023-04-02T08:06:23.226Z,102282.56
2023-04-02T08:08:50.480Z,102297.81
2023-04-02T08:11:17.271Z,102292.66
2023-04-02T08:13:43.857Z,102300.38
2023-04-02T08:16:10.602Z,102301.41
2023-04-02T08:18:37.129Z,102308.22
2023-04-02T08:21:07.776Z,102306.53
2023-04-02T08:23:35.070Z,102311.78
2023-04-02T08:26:01.792Z,102314.44
2023-04-02T08:28:28.292Z,102323.84
2023-04-02T08:30:54.796Z,102332.38
2023-04-02T08:33:24.150Z,102332.44
2023-04-02T08:35:51.211Z,102341.03
2023-04-02T08:38:19.994Z,102346.91
2023-04-02T08:40:50.476Z,102351.03
2023-04-02T08:43:37.476Z,102361.19
2023-04-02T08:46:27.168Z,102361.19
2023-04-02T08:48:57.878Z,102362.16
2023-04-02T08:51:27.238Z,102369.75
2023-04-02T08:54:02.878Z,102374.78
2023-04-02T08:56:37.314Z,102375.63
2023-04-02T08:59:17.645Z,102386.75
2023-04-02T09:02:11.677Z,102384.34
2023-04-02T09:04:38.625Z,102393.75
2023-04-02T09:07:05.314Z,102396.38
2023-04-02T09:09:36.900Z,102399.03
2023-04-02T09:12:04.602Z,102402.47
2023-04-02T09:14:33.672Z,102406.66
2023-04-02T09:17:02.620Z,102410.97
2023-04-02T09:19:44.448Z,102418.63
2023-04-02T09:22:21.374Z,102417.22
2023-04-02T09:24:55.593Z,102420.75
2023-04-02T09:27:25.713Z,102426.94
2023-04-02T09:30:03.963Z,102433.19
2023-04-02T09:32:40.059Z,102440.88
2023-04-02T09:35:24.589Z,102439.09
2023-04-02T09:38:21.906Z,102454.38
2023-04-02T09:41:04.645Z,102453.47
2023-04-02T09:43:32.523Z,102456.16
2023-04-02T09:46:12.759Z,102454.69
2023-04-02T09:48:53.289Z,102456.56
2023-04-02T09:51:25.552Z,102450.34
2023-04-02T09:54:08.762Z,102456.50
2023-04-02T09:56:39.949Z,102448.31
2023-04-02T09:59:12.494Z,102458.78
2023-04-02T10:01:43.910Z,102464.84
2023-04-02T10:04:44.385Z,102466.63
2023-04-02T10:07:30.731Z,102462.44
2023-04-02T10:09:59.317Z,102471.88
2023-04-02T10:12:28.887Z,102484.53
2023-04-02T10:14:57.740Z,102476.03
2023-04-02T10:17:35.982Z,102482.06
2023-04-02T10:20:20.175Z,102480.44
2023-04-02T10:22:46.894Z,102487.28
2023-04-02T10:25:15.455Z,102481.34
2023-04-02T10:27:57.178Z,102483.13
2023-04-02T10:30:45.297Z,102483.13
2023-04-02T10:33:25.145Z,102493.38
2023-04-02T10:36:04.102Z,102483.97
2023-04-02T10:38:48.925Z,102491.66
2023-04-02T10:41:34.185Z,102491.69
2023-04-02T10:44:24.673Z,102489.13
2023-04-02T10:47:14.845Z,102495.09
2023-04-02T10:49:59.697Z,102501.94
2023-04-02T10:52:39.344Z,102492.53
2023-04-02T10:55:30.141Z,102493.38
2023-04-02T10:58:03.024Z,102491.69
2023-04-02T11:00:34.523Z,102492.53
2023-04-02T11:03:09.215Z,102495.09
2023-04-02T11:05:47.656Z,102505.34
2023-04-02T11:08:20.892Z,102513.03
2023-04-02T11:10:58.450Z,102506.19
2023-04-02T11:13:37.191Z,102512.19
2023-04-02T11:16:04.148Z,102510.47
2023-04-02T11:18:38.706Z,102521.59
2023-04-02T11:21:07.987Z,102524.16
2023-04-02T11:23:38.667Z,102519.88
2023-04-02T11:26:38.676Z,102523.31
2023-04-02T11:29:14.114Z,102518.09
2023-04-02T11:31:42.043Z,102524.91
2023-04-02T11:34:40.755Z,102531.75
2023-04-02T11:37:41.080Z,102538.59
2023-04-02T11:40:13.977Z,102540.28
2023-04-02T11:42:42.320Z,102541.13
2023-04-02T11:45:23.607Z,102548.81
2023-04-02T11:48:03.804Z,102548.78
2023-04-02T11:50:31.885Z,102545.41
2023-04-02T11:53:03.464Z,102556.53
2023-04-02T11:55:34.935Z,102559.06
2023-04-02T11:58:12.980Z,102553.91
2023-04-02T12:01:14.967Z,102559.03
2023-04-02T12:04:19.046Z,102554.63
2023-04-02T12:06:59.951Z,102565.69
2023-04-02T12:09:26.713Z,102557.09
2023-04-02T12:11:59.927Z,102579.38
2023-04-02T12:14:48.395Z,102572.50
2023-04-02T12:17:34.700Z,102584.44
2023-04-02T12:20:10.462Z,102576.72
2023-04-02T12:22:47.591Z,102588.72
2023-04-02T12:25:32.139Z,102585.31
2023-04-02T12:28:11.012Z,102589.56
2023-04-02T12:30:38.630Z,102588.66
2023-04-02T12:33:37.322Z,102587.00
2023-04-02T12:36:06.767Z,102592.16
2023-04-02T12:38:53.912Z,102584.44
2023-04-02T12:41:27.159Z,102588.78
2023-04-02T12:44:24.001Z,102590.44
2023-04-02T12:46:52.213Z,102596.50
2023-04-02T12:49:39.935Z,102599.94
2023-04-02T12:52:10.689Z,102606.78
2023-04-02T12:54:45.655Z,102598.19
2023-04-02T12:57:27.489Z,102612.72
2023-04-02T12:59:55.561Z,102612.75
2023-04-02T13:02:25.281Z,102606.00
2023-04-02T13:04:57.377Z,102601.72
2023-04-02T13:07:26.276Z,102608.53
2023-04-02T13:09:55.573Z,102605.97
2023-04-02T13:12:37.228Z,102612.81
2023-04-02T13:15:22.089Z,102614.53
2023-04-02T13:18:02.785Z,102616.28
2023-04-02T13:20:38.146Z,102616.25
2023-04-02T13:23:29.641Z,102617.97
2023-04-02T13:25:58.876Z,102613.69
2023-04-02T13:28:25.519Z,102606.88
2023-04-02T13:30:51.937Z,102617.13
2023-04-02T13:33:18.821Z,102615.41
2023-04-02T13:35:45.527Z,102619.69
2023-04-02T13:38:12.091Z,102613.72
2023-04-02T13:40:39.130Z,102627.41
2023-04-02T13:43:06.544Z,102617.94
2023-04-02T13:45:37.760Z,102619.59
2023-04-02T13:48:05.756Z,102618.75
2023-04-02T13:50:34.239Z,102626.41
2023-04-02T13:53:08.369Z,102627.19
2023-04-02T13:55:39.928Z,102629.78
2023-04-02T13:58:06.560Z,102627.19
2023-04-02T14:00:35.886Z,102634.06
2023-04-02T14:03:08.057Z,102640.94
2023-04-02T14:05:40.530Z,102632.34
2023-04-02T14:08:16.620Z,102646.03
2023-04-02T14:11:04.881Z,102634.00
2023-04-02T14:13:53.257Z,102648.56
2023-04-02T14:16:38.713Z,102645.06
2023-04-02T14:19:30.118Z,102649.28
2023-04-02T14:22:24.339Z,102645.03
2023-04-02T14:24:53.783Z,102647.72
2023-04-02T14:27:29.369Z,102651.19
2023-04-02T14:30:13.904Z,102661.41
2023-04-02T14:32:49.028Z,102652.81
2023-04-02T14:35:27.673Z,102657.94
2023-04-02T14:38:12.948Z,102657.03
2023-04-02T14:41:08.712Z,102663.91
2023-04-02T14:44:05.962Z,102673.28
2023-04-02T14:46:37.362Z,102665.53
2023-04-02T14:49:24.806Z,102678.34
2023-04-02T14:51:58.725Z,102680.94
2023-04-02T14:54:35.992Z,102689.47
2023-04-02T14:57:29.671Z,102683.44
2023-04-02T15:00:33.666Z,102681.75
2023-04-02T15:03:12.219Z,102681.75
2023-04-02T15:05:49.807Z,102688.59
2023-04-02T15:08:24.375Z,102685.91
2023-04-02T15:11:09.566Z,102694.50
2023-04-02T15:13:41.986Z,102689.31
2023-04-02T15:16:13.586Z,102698.75
2023-04-02T15:18:40.074Z,102693.53
2023-04-02T15:21:23.420Z,102711.53
2023-04-02T15:23:58.968Z,102698.63
2023-04-02T15:26:31.606Z,102694.31
2023-04-02T15:29:25.847Z,102698.63
2023-04-02T15:32:03.330Z,102696.94
2023-04-02T15:34:50.485Z,102697.81
2023-04-02T15:37:36.773Z,102700.38
2023-04-02T15:40:51.723Z,102693.50
2023-04-02T15:43:41.047Z,102707.19
2023-04-02T15:46:17.237Z,102712.34
2023-04-02T15:48:51.326Z,102715.81
2023-04-02T15:51:53.340Z,102717.44
2023-04-02T15:54:45.973Z,102710.53
2023-04-02T15:57:48.983Z,102710.59
2023-04-02T16:00:27.853Z,102706.31
2023-04-02T16:03:17.361Z,102710.63
2023-04-02T16:06:05.198Z,102701.16
2023-04-02T16:08:44.916Z,102711.38
2023-04-02T16:11:15.119Z,102714.84
2023-04-02T16:13:43.176Z,102723.47
2023-04-02T16:16:26.847Z,102728.63
2023-04-02T16:19:00.723Z,102733.78
2023-04-02T16:21:38.542Z,102746.63
2023-04-02T16:24:11.510Z,102743.13
2023-04-02T16:26:56.856Z,102738.91
2023-04-02T16:29:55.847Z,102742.41
2023-04-02T16:32:28.392Z,102747.59
2023-04-02T16:38:20.710Z,102750.25
2023-04-02T16:41:09.285Z,102755.41
2023-04-02T16:43:53.590Z,102758.84
2023-04-02T16:47:01.825Z,102751.97
2023-04-02T16:49:55.765Z,102770.00
2023-04-02T16:52:38.114Z,102769.16
2023-04-02T16:55:23.311Z,102779.47
2023-04-02T16:57:58.816Z,102781.13
2023-04-02T17:01:03.236Z,102788.84
2023-04-02T17:04:11.330Z,102787.13
2023-04-02T17:06:44.814Z,102790.63
2023-04-02T17:09:15.585Z,102798.41
2023-04-02T17:11:56.882Z,102807.84
2023-04-02T17:14:42.088Z,102812.09
2023-04-02T17:17:11.539Z,102817.25
2023-04-02T17:19:43.661Z,102819.84
2023-04-02T17:22:16.813Z,102814.75
2023-04-02T17:24:49.758Z,102821.56
2023-04-02T17:27:23.607Z,102830.13
2023-04-02T17:29:53.150Z,102832.69
2023-04-02T17:32:29.879Z,102827.59
2023-04-02T17:34:57.774Z,102837.88
2023-04-02T17:37:34.901Z,102830.13
2023-04-02T17:40:19.914Z,102846.38
2023-04-02T17:42:53.520Z,102850.66
2023-04-02T17:45:29.365Z,102848.06
2023-04-02T17:48:03.387Z,102855.75
2023-04-02T17:51:05.854Z,102863.44
2023-04-02T17:53:39.813Z,102867.66
2023-04-02T17:56:27.706Z,102866.75
2023-04-02T17:59:27.794Z,102877.00
2023-04-02T18:02:32.833Z,102881.16
2023-04-02T18:05:26.843Z,102883.69
2023-04-02T18:08:27.385Z,102891.31
2023-04-02T18:11:31.396Z,102893.84
2023-04-02T18:14:19.371Z,102892.97
2023-04-02T18:17:10.723Z,102896.31
2023-04-02T18:19:58.443Z,102908.22
2023-04-02T18:22:43.323Z,102905.63
2023-04-02T18:25:40.897Z,102903.88
2023-04-02T18:28:44.982Z,102914.06
2023-04-02T18:31:24.219Z,102919.09
2023-04-02T18:34:05.617Z,102928.44
2023-04-02T18:36:44.339Z,102925.88
2023-04-02T18:39:28.859Z,102925.84
2023-04-02T18:41:58.260Z,102931.78
2023-04-02T18:44:54.637Z,102931.75
2023-04-02T18:47:43.380Z,102941.06
2023-04-02T18:50:32.548Z,102952.09
2023-04-02T18:53:01.561Z,102947.78
2023-04-02T18:55:30.307Z,102945.19
2023-04-02T18:58:10.844Z,102953.63
2023-04-02T19:00:41.296Z,102959.56
2023-04-02T19:03:28.029Z,102963.78
2023-04-02T19:06:19.131Z,102968.00
2023-04-02T19:08:50.249Z,102983.25
2023-04-02T19:11:27.393Z,102981.47
2023-04-02T19:13:54.464Z,102983.13
2023-04-02T19:16:48.078Z,103001.00
2023-04-02T19:19:26.981Z,103004.41
2023-04-02T19:22:24.513Z,103004.34
2023-04-02T19:25:26.614Z,103009.38
2023-04-02T19:28:02.649Z,103006.78
2023-04-02T19:30:40.598Z,103017.84
2023-04-02T19:33:31.772Z,103013.53
2023-04-02T19:36:02.184Z,103018.63
2023-04-02T19:38:28.558Z,103021.94
2023-04-02T19:41:00.696Z,103021.03
2023-04-02T19:43:27.267Z,103022.66
2023-04-02T19:45:54.515Z,103026.91
2023-04-02T19:48:34.967Z,103025.16
2023-04-02T19:51:01.717Z,103024.31
2023-04-02T19:53:28.135Z,103031.06
2023-04-02T19:55:57.114Z,103034.47
2023-04-02T19:58:32.097Z,103037.84
2023-04-02T20:00:58.781Z,103039.47
2023-04-02T20:03:25.362Z,103040.22
2023-04-02T20:05:52.594Z,103052.09
2023-04-02T20:08:19.205Z,103050.31
2023-04-02T20:10:46.012Z,103045.97
2023-04-02T20:13:12.778Z,103050.13
2023-04-02T20:15:40.329Z,103044.91
2023-04-02T20:18:07.109Z,103048.22
2023-04-02T20:20:33.861Z,103051.47
2023-04-02T20:23:00.782Z,103054.00
2023-04-02T20:25:27.289Z,103062.38
2023-04-02T20:27:53.913Z,103062.31
2023-04-02T20:30:20.556Z,103064.75
2023-04-02T20:32:47.256Z,103067.25
2023-04-02T20:35:13.667Z,103074.88
2023-04-02T20:37:41.851Z,103079.09
2023-04-02T20:40:10.014Z,103086.63
2023-04-02T20:42:36.553Z,103087.41
2023-04-02T20:45:05.101Z,103090.69
2023-04-02T20:47:31.597Z,103088.94
2023-04-02T20:49:57.982Z,103091.47
2023-04-02T20:52:24.434Z,103095.69
2023-04-02T20:54:50.990Z,103094.69
2023-04-02T20:57:19.579Z,103092.94
2023-04-02T20:59:46.370Z,103099.66
2023-04-02T21:02:12.944Z,103097.84
2023-04-02T21:04:39.402Z,103106.25
2023-04-02T21:07:06.173Z,103107.03
2023-04-02T21:09:32.651Z,103106.03
2023-04-02T21:11:59.174Z,103117.84
2023-04-02T21:14:26.089Z,103118.59
2023-04-02T21:16:52.627Z,103117.75
2023-04-02T21:19:19.026Z,103125.34
2023-04-02T21:21:45.594Z,103124.34
2023-04-02T21:24:12.023Z,103125.94
2023-04-02T21:26:40.475Z,103127.47
2023-04-02T21:29:07.279Z,103135.94
2023-04-02T21:31:39.463Z,103129.03
2023-04-02T21:34:07.544Z,103131.47
2023-04-02T21:36:36.572Z,103142.47
2023-04-02T21:39:20.059Z,103151.69
2023-04-02T21:41:49.974Z,103149.84
2023-04-02T21:44:19.340Z,103146.38
2023-04-02T21:46:46.576Z,103147.16
2023-04-02T21:49:16.420Z,103147.88
2023-04-02T21:51:44.486Z,103148.56
2023-04-02T21:54:11.227Z,103146.78
2023-04-02T21:56:40.638Z,103146.72
2023-04-02T21:59:08.921Z,103150.00
2023-04-02T22:01:41.637Z,103154.13
2023-04-02T22:04:09.323Z,103147.31
2023-04-02T22:06:39.513Z,103146.34
2023-04-02T22:09:09.566Z,103149.63
2023-04-02T22:11:45.412Z,103150.34
2023-04-02T22:14:12.388Z,103150.31
2023-04-02T22:16:39.725Z,103155.31
2023-04-02T22:19:09.353Z,103156.97
2023-04-02T22:21:36.767Z,103152.59
2023-04-02T22:24:06.286Z,103155.00
2023-04-02T22:26:33.795Z,103153.16
2023-04-02T22:29:00.775Z,103162.41
2023-04-02T22:31:30.137Z,103155.53
2023-04-02T22:33:58.034Z,103158.00
2023-04-02T22:36:25.846Z,103157.84
2023-04-02T22:38:53.079Z,103159.44
2023-04-02T22:41:26.244Z,103160.16
2023-04-02T22:43:53.384Z,103152.47
2023-04-02T22:46:20.781Z,103157.47
2023-04-02T22:48:48.449Z,103159.03
2023-04-02T22:51:16.954Z,103153.78
2023-04-02T22:53:43.742Z,103169.00
2023-04-02T22:56:22.045Z,103171.50
2023-04-02T22:58:48.931Z,103167.03
2023-04-02T23:01:21.850Z,103176.34
2023-04-02T23:03:49.328Z,103179.66
2023-04-02T23:06:17.702Z,103175.34
2023-04-02T23:08:45.592Z,103173.50
2023-04-02T23:11:15.155Z,103178.59
2023-04-02T23:13:42.622Z,103176.00
2023-04-02T23:16:13.028Z,103185.28
2023-04-02T23:18:40.884Z,103180.09
2023-04-02T23:21:08.553Z,103179.13
2023-04-02T23:23:35.872Z,103185.91
2023-04-02T23:26:16.007Z,103181.53
2023-04-02T23:28:42.563Z,103178.09
2023-04-02T23:31:13.004Z,103180.50
2023-04-02T23:33:39.664Z,103186.28
2023-04-02T23:36:10.202Z,103194.63
2023-04-02T23:38:36.867Z,103186.09
2023-04-02T23:41:03.704Z,103193.66
2023-04-02T23:43:30.358Z,103183.38
2023-04-02T23:45:56.940Z,103184.19
2023-04-02T23:48:23.559Z,103190.03
2023-04-02T23:50:50.056Z,103189.97
2023-04-02T23:53:16.923Z,103186.44
2023-04-02T23:55:43.422Z,103187.25
2023-04-02T23:58:09.883Z,103201.50
